Latest Coastal Weather Observations for Cape Grim

IDV60701

Issued at 2:45 pm EST Friday 20 September 2013 (issued every 10 minutes, with the page automatically refreshed every 10 minutes)

About coastal observations | Map of coastal stations | Coastal observations for VIC | Marine services | Other Formats
Station Details ID: 091245 Name: CAPE GRIM BAPS (COMPARISON) Lat: -40.68 Lon: 144.69 Height: 94.0 m
Data from the previous 72 hours. | See also: Recent months at Cape Grim
Date/Time
EST
Temp

°C
Wind Pressure Rain
since 9am
mm
Weather Cloud Vis
km
Sea
Height
m
Swell
Dir
 
Speed
knots
Gust
knots
hPa Trend Height
m
Period
s
Dir
20/02:30pm 13.0 WSW 28 34 1006.9 - 0.2 - - - - - - -
20/02:00pm 13.4 WSW 29 32 1006.6 - 0.2 - - - - - - -
20/01:30pm 13.4 WSW 26 29 1006.4 - 0.2 - - - - - - -
20/01:00pm 13.4 WSW 23 28 1006.2 - 0.2 - - - - - - -
20/12:30pm 13.1 WSW 24 27 1005.9 - 0.2 - - - - - - -
20/12:00pm 13.9 WSW 21 25 1005.7 - 0.2 - - - - - - -
20/11:30am 14.2 WSW 19 24 1005.7 - 0.2 - - - - - - -
20/11:00am 13.0 WSW 12 15 1005.6 - 0.2 - - - - - - -
20/10:30am 11.5 WSW 19 24 1005.3 - 0.2 - - - - - - -
20/10:00am 14.0 W 7 10 1005.0 - 0.0 - - - - - - -
20/09:30am 14.1 WNW 4 6 1004.6 - 0.0 - - - - - - -
20/09:00am 13.9 NNW 4 5 1004.3 - 2.4 - - - - - - -
20/08:30am 12.6 N 4 5 1003.9 - 2.4 - - - - - - -
20/08:00am 12.0 NE 4 6 1003.5 - 2.4 - - - - - - -
20/07:30am 10.8 NE 4 5 1003.1 - 2.4 - - - - - - -
20/07:00am 9.6 E 3 4 1003.0 - 2.4 - - - - - - -
20/06:30am 9.3 E 7 7 1002.5 - 2.4 - - - - - - -
20/06:00am 9.1 E 7 8 1002.3 - 2.4 - - - - - - -
20/05:30am 9.0 E 7 9 1002.0 - 2.4 - - - - - - -
20/05:00am 9.8 E 2 4 1001.8 - 2.4 - - - - - - -
20/04:30am 9.6 NE 6 7 1001.7 - 1.6 - - - - - - -
20/04:00am 10.0 ENE 5 6 1001.6 - 1.4 - - - - - - -
20/03:30am 9.9 ENE 7 7 1001.5 - 1.4 - - - - - - -
20/03:00am 10.0 E 6 6 1001.7 - 1.4 - - - - - - -
20/02:30am 9.9 E 5 6 1001.9 - 1.4 - - - - - - -
20/02:00am 9.8 NE 3 4 1002.1 - 1.4 - - - - - - -
20/01:30am 9.9 N 5 6 1002.3 - 1.4 - - - - - - -
20/01:00am 10.1 NW 5 7 1002.7 - 1.4 - - - - - - -
20/12:30am 9.8 NW 4 7 1002.8 - 1.4 - - - - - - -
20/12:00am 10.3 W 5 7 1002.7 - 1.4 - - - - - - -
 
Date/Time
EST
Temp

°C
Wind Pressure Rain
since 9am
mm
Weather Cloud Vis
km
Sea
Height
m
Swell
Dir
 
Speed
knots
Gust
knots
hPa Trend Height
m
Period
s
Dir
19/11:30pm 10.2 W 7 9 1002.9 - 1.4 - - - - - - -
19/11:00pm 10.5 WSW 9 11 1003.1 - 1.4 - - - - - - -
19/10:30pm 10.6 WSW 12 14 1003.3 - 1.4 - - - - - - -
19/10:00pm 10.6 WSW 13 15 1003.4 - 1.4 - - - - - - -
19/09:30pm 10.7 WSW 16 19 1003.6 - 1.4 - - - - - - -
19/09:00pm 11.1 W 20 25 1003.7 - 1.4 - - - - - - -
19/08:30pm 10.9 W 16 21 1003.6 - 1.4 - - - - - - -
19/08:00pm 10.8 WSW 23 27 1003.4 - 1.4 - - - - - - -
19/07:30pm 10.6 W 20 25 1003.3 - 1.4 - - - - - - -
19/07:00pm 11.1 W 26 33 1003.0 - 0.6 - - - - - - -
19/06:30pm 11.2 W 24 31 1002.6 - 0.6 - - - - - - -
19/06:00pm 11.5 WSW 27 31 1002.4 - 0.6 - - - - - - -
19/05:30pm 11.5 WSW 30 33 1002.0 - 0.6 - - - - - - -
19/05:00pm 11.7 WSW 30 35 1001.5 - 0.6 - - - - - - -
19/04:30pm 11.6 WSW 29 35 1001.3 - 0.6 - - - - - - -
19/04:00pm 12.4 WSW 30 34 1001.3 - 0.6 - - - - - - -
19/03:30pm 11.5 WSW 30 34 1001.2 - 0.6 - - - - - - -
19/03:00pm 11.2 WSW 29 36 1001.2 - 0.6 - - - - - - -
19/02:30pm 11.0 WSW 29 35 1000.8 - 0.6 - - - - - - -
19/02:00pm 11.1 WSW 31 37 1000.2 - 0.6 - - - - - - -
19/01:30pm 10.8 WSW 33 37 1001.4 - 0.6 - - - - - - -
19/01:00pm 11.4 WSW 31 37 999.9 - 0.6 - - - - - - -
19/12:30pm 11.6 WSW 31 37 1000.2 - 0.6 - - - - - - -
19/12:00pm 11.7 WSW 30 34 1000.6 - 0.6 - - - - - - -
19/11:30am 11.8 WSW 31 35 1000.7 - 0.6 - - - - - - -
19/11:00am 11.7 WSW 30 34 1001.0 - 0.6 - - - - - - -
19/10:30am 11.4 WSW 33 41 1000.1 - 0.6 - - - - - - -
19/10:00am 11.3 WSW 30 35 999.3 - 0.0 - - - - - - -
19/09:30am 11.5 SW 31 36 1000.0 - 0.0 - - - - - - -
19/09:00am 11.8 WSW 30 34 999.3 - 5.8 - - - - - - -
19/08:30am 11.5 SW 27 30 1000.2 - 5.8 - - - - - - -
19/08:00am 11.7 SW 26 31 999.6 - 5.8 - - - - - - -
19/07:30am 11.3 SW 25 30 999.0 - 5.8 - - - - - - -
19/07:00am 11.4 SW 23 25 999.4 - 5.8 - - - - - - -
19/06:30am 11.3 SW 22 26 998.6 - 5.6 - - - - - - -
19/06:00am 11.5 SW 23 26 998.8 - 5.6 - - - - - - -
19/05:30am 11.4 SW 24 28 998.2 - 5.6 - - - - - - -
19/05:00am 11.4 SW 26 30 997.5 - 5.6 - - - - - - -
19/04:30am 11.6 SW 26 29 997.5 - 5.2 - - - - - - -
19/04:00am 11.6 SW 27 32 997.1 - 4.6 - - - - - - -
19/03:30am 11.6 SW 26 29 997.2 - 4.0 - - - - - - -
19/03:00am 11.9 SW 23 27 997.1 - 3.6 - - - - - - -
19/02:30am 11.9 WSW 23 28 996.8 - 3.2 - - - - - - -
19/02:00am 11.8 WSW 27 33 996.7 - 3.0 - - - - - - -
19/01:30am 11.9 WSW 27 30 996.9 - 2.8 - - - - - - -
19/01:00am 11.9 WSW 25 30 996.6 - 2.4 - - - - - - -
19/12:30am 12.0 WSW 27 30 996.5 - 2.4 - - - - - - -
19/12:00am 12.0 WSW 23 27 996.5 - 2.4 - - - - - - -
 
Date/Time
EST
Temp

°C
Wind Pressure Rain
since 9am
mm
Weather Cloud Vis
km
Sea
Height
m
Swell
Dir
 
Speed
knots
Gust
knots
hPa Trend Height
m
Period
s
Dir
18/11:30pm 12.0 WSW 23 29 996.6 - 2.2 - - - - - - -
18/11:00pm 12.0 WSW 21 24 996.7 - 1.6 - - - - - - -
18/10:30pm 12.0 W 20 25 997.1 - 1.4 - - - - - - -
18/10:00pm 11.8 W 19 25 996.5 - 1.2 - - - - - - -
18/09:30pm 11.8 WSW 19 21 997.1 - 1.2 - - - - - - -
18/09:00pm 12.2 WSW 14 16 996.6 - 1.0 - - - - - - -
18/08:30pm 12.0 WSW 15 16 995.9 - 1.0 - - - - - - -
18/08:00pm 12.1 SW 15 17 995.7 - 1.0 - - - - - - -
18/07:30pm 12.0 SW 13 15 995.4 - 1.0 - - - - - - -
18/07:00pm 12.1 SW 16 17 995.1 - 1.0 - - - - - - -
18/06:30pm 12.1 WSW 15 17 995.3 - 1.0 - - - - - - -
18/06:00pm 12.1 WSW 13 14 995.2 - 1.0 - - - - - - -
18/05:30pm 12.0 W 11 14 995.2 - 1.0 - - - - - - -
18/05:00pm 12.1 W 10 16 995.2 - 1.0 - - - - - - -
18/04:30pm 12.4 W 12 19 994.3 - 1.0 - - - - - - -
18/04:00pm 12.9 NW 6 7 996.3 - 1.0 - - - - - - -
18/03:30pm 12.5 NNW 7 10 995.8 - 1.0 - - - - - - -
18/03:00pm 12.4 NNW 6 7 995.8 - 0.8 - - - - - - -
18/02:30pm 12.6 N 6 9 995.9 - 0.8 - - - - - - -
18/02:00pm 12.8 NW 6 8 995.9 - 0.6 - - - - - - -
18/01:30pm 13.5 NNW 6 9 996.0 - 0.0 - - - - - - -
18/01:00pm 13.7 NE 5 7 996.8 - 0.0 - - - - - - -
18/12:30pm 13.4 NE 7 9 997.0 - 0.0 - - - - - - -
18/12:00pm 13.1 NE 7 9 997.3 - 0.0 - - - - - - -
18/11:30am 13.0 NE 6 9 997.4 - 0.0 - - - - - - -
18/11:00am 13.1 ENE 9 11 997.6 - 0.0 - - - - - - -
18/10:30am 13.3 ENE 10 12 997.9 - 0.0 - - - - - - -
18/10:00am 12.5 ENE 9 11 998.1 - 0.0 - - - - - - -
18/09:30am 12.0 ENE 10 13 998.3 - 0.0 - - - - - - -
18/09:00am 11.5 E 11 13 998.5 - 7.6 - - - - - - -
18/08:30am 10.9 E 12 14 998.7 - 7.6 - - - - - - -
18/08:00am 10.7 E 12 14 998.8 - 7.6 - - - - - - -
18/07:30am 10.5 ESE 12 15 998.9 - 7.6 - - - - - - -
18/07:00am 10.4 ESE 11 12 999.2 - 7.6 - - - - - - -
18/06:30am 10.4 ESE 10 13 999.6 - 7.6 - - - - - - -
18/06:00am 10.3 ESE 11 13 999.7 - 7.6 - - - - - - -
18/05:30am 10.4 E 14 17 999.4 - 7.6 - - - - - - -
18/05:00am 10.4 E 16 19 999.5 - 7.6 - - - - - - -
18/04:30am 10.4 E 16 19 999.6 - 7.6 - - - - - - -
18/04:00am 10.4 E 19 23 999.6 - 7.4 - - - - - - -
18/03:30am 10.4 E 19 25 999.9 - 7.4 - - - - - - -
18/03:00am 10.4 E 22 27 1000.2 - 7.4 - - - - - - -
18/02:30am 10.5 E 22 27 1000.6 - 7.4 - - - - - - -
18/02:00am 10.6 E 22 28 1001.3 - 7.4 - - - - - - -
18/01:30am 10.9 E 22 27 1001.8 - 7.2 - - - - - - -
18/01:00am 11.0 E 24 28 1002.0 - 6.8 - - - - - - -
18/12:30am 11.1 E 22 29 1003.1 - 6.6 - - - - - - -
18/12:00am 11.1 E 22 27 1003.0 - 6.2 - - - - - - -
 
Date/Time
EST
Temp

°C
Wind Pressure Rain
since 9am
mm
Weather Cloud Vis
km
Sea
Height
m
Swell
Dir
 
Speed
knots
Gust
knots
hPa Trend Height
m
Period
s
Dir
17/11:30pm 11.0 E 22 27 1003.3 - 5.8 - - - - - - -
17/11:00pm 11.0 E 22 29 1003.7 - 5.8 - - - - - - -
17/10:30pm 11.0 E 23 29 1003.8 - 5.8 - - - - - - -
17/10:00pm 11.1 E 24 30 1004.2 - 5.6 - - - - - - -
17/09:30pm 11.1 E 22 28 1004.6 - 5.6 - - - - - - -
17/09:00pm 11.1 E 23 29 1005.4 - 5.2 - - - - - - -
17/08:30pm 11.1 E 23 32 1004.8 - 4.8 - - - - - - -
17/08:00pm 11.1 E 24 32 1004.9 - 4.4 - - - - - - -
17/07:30pm 11.1 E 26 34 1004.7 - 4.2 - - - - - - -
17/07:00pm 11.3 E 27 34 1004.4 - 4.0 - - - - - - -
17/06:30pm 11.3 E 27 35 1004.5 - 3.8 - - - - - - -
17/06:00pm 11.4 E 28 34 1004.4 - 3.4 - - - - - - -
17/05:30pm 11.5 E 26 35 1004.4 - 3.0 - - - - - - -
17/05:00pm 11.5 E 29 37 1004.4 - 2.8 - - - - - - -
17/04:30pm 11.5 E 29 38 1004.3 - 2.6 - - - - - - -
17/04:00pm 11.6 E 29 37 1004.3 - 2.4 - - - - - - -
17/03:30pm 11.7 E 27 33 1004.7 - 2.2 - - - - - - -
17/03:00pm 11.6 E 28 37 1004.6 - 2.0 - - - - - - -

Other Formats:

Comma delimited format used in spreadsheet applications
http://www.bom.gov.au/fwo/IDV60701/IDV60701.94954.axf

JavaScript Object Notation format (JSON) in row-major order
http://www.bom.gov.au/fwo/IDV60701/IDV60701.94954.json